Homestown, Missouri
Current Conditions -  °F | °C
As of 9:53 AM on Thursday 27 Nov 2014 (Local Time) from KHKA Reporting Station
Scattered Clouds Scattered Clouds  
Wind Chill: 50°   Ceiling: Unl
Heat Index: 50°   Visibility: 10mi
Dew Point: 32°   Wind: 15mph
Humidity: 50%   Direction: 20°NNE
Pressure: 30.5"   Gusts: NA
Location:  36.3524°N, 89.8327°W
Report Text: KHKA 271553Z AUTO 02013KT 10SM SCT027 SCT032 10/00 A3050 RMK AO2 SLP329 T01000000
Loading
Personal Weather Stations






























Interactive Weather Map New forecast layout! Learn more

10-Day Weather Forecast

Advertisements
Track Severe Weather on mobile